sensor_id;sensor_type;location;lat;lon;timestamp;pressure;altitude;pressure_sealevel;temperature;humidity
72116;BME280;59991;52.140;5.428;2022-11-04T00:00:25;100047.31;;;10.94;93.90
72116;BME280;59991;52.140;5.428;2022-11-04T00:01:04;100046.50;;;10.97;93.51
72116;BME280;59991;52.140;5.428;2022-11-04T00:01:41;100048.84;;;10.98;93.73
72116;BME280;59991;52.140;5.428;2022-11-04T00:02:12;100045.38;;;10.94;93.57
72116;BME280;59991;52.140;5.428;2022-11-04T00:02:44;100050.81;;;10.94;93.67
72116;BME280;59991;52.140;5.428;2022-11-04T00:03:15;100055.47;;;10.97;93.21
72116;BME280;59991;52.140;5.428;2022-11-04T00:03:47;100051.22;;;10.96;93.32
72116;BME280;59991;52.140;5.428;2022-11-04T00:04:21;100058.56;;;10.99;93.27
72116;BME280;59991;52.140;5.428;2022-11-04T00:04:53;100050.78;;;10.98;93.34
72116;BME280;59991;52.140;5.428;2022-11-04T00:05:25;100055.06;;;10.99;93.03
72116;BME280;59991;52.140;5.428;2022-11-04T00:06:00;100055.06;;;10.99;93.32
72116;BME280;59991;52.140;5.428;2022-11-04T00:06:31;100057.03;;;10.98;93.37
72116;BME280;59991;52.140;5.428;2022-11-04T00:07:03;100055.09;;;10.95;93.35
72116;BME280;59991;52.140;5.428;2022-11-04T00:07:54;100061.69;;;10.98;93.19
72116;BME280;59991;52.140;5.428;2022-11-04T00:08:55;100063.28;;;10.95;93.05
72116;BME280;59991;52.140;5.428;2022-11-04T00:09:28;100063.28;;;10.95;92.86
72116;BME280;59991;52.140;5.428;2022-11-04T00:10:01;100062.91;;;10.93;92.84
72116;BME280;59991;52.140;5.428;2022-11-04T00:10:32;100059.00;;;10.94;93.17
72116;BME280;59991;52.140;5.428;2022-11-04T00:11:23;100068.75;;;10.95;93.09
72116;BME280;59991;52.140;5.428;2022-11-04T00:12:21;100066.41;;;10.94;93.51
72116;BME280;59991;52.140;5.428;2022-11-04T00:12:55;100067.19;;;10.94;93.06
72116;BME280;59991;52.140;5.428;2022-11-04T00:13:28;100067.19;;;10.94;93.52
72116;BME280;59991;52.140;5.428;2022-11-04T00:14:00;100072.28;;;10.92;93.38
72116;BME280;59991;52.140;5.428;2022-11-04T00:14:32;100066.81;;;10.92;93.25
72116;BME280;59991;52.140;5.428;2022-11-04T00:15:04;100066.81;;;10.92;93.59
72116;BME280;59991;52.140;5.428;2022-11-04T00:15:54;100076.16;;;10.91;93.73
72116;BME280;59991;52.140;5.428;2022-11-04T00:16:44;100072.66;;;10.91;93.76
72116;BME280;59991;52.140;5.428;2022-11-04T00:17:35;100075.00;;;10.89;93.58
72116;BME280;59991;52.140;5.428;2022-11-04T00:18:06;100078.50;;;10.89;93.67
72116;BME280;59991;52.140;5.428;2022-11-04T00:18:37;100076.97;;;10.88;93.70
72116;BME280;59991;52.140;5.428;2022-11-04T00:19:09;100078.13;;;10.87;93.92
72116;BME280;59991;52.140;5.428;2022-11-04T00:19:40;100076.56;;;10.90;94.09
72116;BME280;59991;52.140;5.428;2022-11-04T00:20:30;100078.50;;;10.89;93.97
72116;BME280;59991;52.140;5.428;2022-11-04T00:21:20;100081.25;;;10.89;94.13
72116;BME280;59991;52.140;5.428;2022-11-04T00:22:10;100078.50;;;10.89;94.06
72116;BME280;59991;52.140;5.428;2022-11-04T00:23:00;100077.72;;;10.89;93.83
72116;BME280;59991;52.140;5.428;2022-11-04T00:23:50;100076.19;;;10.88;94.00
72116;BME280;59991;52.140;5.428;2022-11-04T00:24:40;100083.19;;;10.89;93.88
72116;BME280;59991;52.140;5.428;2022-11-04T00:25:14;100079.69;;;10.88;93.70
72116;BME280;59991;52.140;5.428;2022-11-04T00:26:07;100080.09;;;10.87;93.96
72116;BME280;59991;52.140;5.428;2022-11-04T00:26:58;100081.25;;;10.86;93.81
72116;BME280;59991;52.140;5.428;2022-11-04T00:27:48;100083.97;;;10.86;93.83
72116;BME280;59991;52.140;5.428;2022-11-04T00:28:38;100080.47;;;10.85;94.26
72116;BME280;59991;52.140;5.428;2022-11-04T00:29:12;100077.75;;;10.85;94.06
72116;BME280;59991;52.140;5.428;2022-11-04T00:29:44;100085.53;;;10.83;94.31
72116;BME280;59991;52.140;5.428;2022-11-04T00:30:15;100086.72;;;10.82;93.90
72116;BME280;59991;52.140;5.428;2022-11-04T00:30:47;100086.72;;;10.82;94.20
72116;BME280;59991;52.140;5.428;2022-11-04T00:31:18;100075.81;;;10.82;94.05
72116;BME280;59991;52.140;5.428;2022-11-04T00:32:08;100085.53;;;10.83;94.18
72116;BME280;59991;52.140;5.428;2022-11-04T00:32:58;100086.31;;;10.84;94.07
72116;BME280;59991;52.140;5.428;2022-11-04T00:33:49;100089.06;;;10.84;93.82
72116;BME280;59991;52.140;5.428;2022-11-04T00:34:21;100084.00;;;10.82;93.67
72116;BME280;59991;52.140;5.428;2022-11-04T00:34:52;100088.66;;;10.82;94.02
72116;BME280;59991;52.140;5.428;2022-11-04T00:35:24;100086.34;;;10.80;93.91
72116;BME280;59991;52.140;5.428;2022-11-04T00:35:56;100090.63;;;10.81;93.66
72116;BME280;59991;52.140;5.428;2022-11-04T00:36:27;100090.63;;;10.81;93.80
72116;BME280;59991;52.140;5.428;2022-11-04T00:36:59;100093.34;;;10.81;93.87
72116;BME280;59991;52.140;5.428;2022-11-04T00:37:30;100098.41;;;10.79;94.18
72116;BME280;59991;52.140;5.428;2022-11-04T00:38:01;100098.41;;;10.79;94.46
72116;BME280;59991;52.140;5.428;2022-11-04T00:38:33;100100.38;;;10.79;94.44
72116;BME280;59991;52.140;5.428;2022-11-04T00:39:04;100094.13;;;10.78;94.41
72116;BME280;59991;52.140;5.428;2022-11-04T00:39:35;100096.91;;;10.75;93.55
72116;BME280;59991;52.140;5.428;2022-11-04T00:40:08;100099.19;;;10.80;93.96
72116;BME280;59991;52.140;5.428;2022-11-04T00:40:40;100103.09;;;10.79;94.10
72116;BME280;59991;52.140;5.428;2022-11-04T00:41:12;100101.91;;;10.80;93.77
72116;BME280;59991;52.140;5.428;2022-11-04T00:42:00;100108.53;;;10.82;93.85
72116;BME280;59991;52.140;5.428;2022-11-04T00:42:32;100103.09;;;10.82;94.01
72116;BME280;59991;52.140;5.428;2022-11-04T00:43:03;100101.13;;;10.83;94.14
72116;BME280;59991;52.140;5.428;2022-11-04T00:43:34;100101.53;;;10.81;93.97
72116;BME280;59991;52.140;5.428;2022-11-04T00:44:06;100105.44;;;10.80;94.31
72116;BME280;59991;52.140;5.428;2022-11-04T00:44:37;100105.03;;;10.78;94.33
72116;BME280;59991;52.140;5.428;2022-11-04T00:45:09;100098.84;;;10.74;93.99
72116;BME280;59991;52.140;5.428;2022-11-04T00:45:41;100097.28;;;10.77;93.83
72116;BME280;59991;52.140;5.428;2022-11-04T00:46:12;100109.72;;;10.78;94.61
72116;BME280;59991;52.140;5.428;2022-11-04T00:46:44;100105.47;;;10.77;94.60
72116;BME280;59991;52.140;5.428;2022-11-04T00:47:15;100095.34;;;10.73;94.11
72116;BME280;59991;52.140;5.428;2022-11-04T00:47:46;100108.19;;;10.77;94.38
72116;BME280;59991;52.140;5.428;2022-11-04T00:48:18;100112.88;;;10.76;94.41
72116;BME280;59991;52.140;5.428;2022-11-04T00:48:49;100112.44;;;10.78;94.13
72116;BME280;59991;52.140;5.428;2022-11-04T00:49:20;100101.56;;;10.74;93.65
72116;BME280;59991;52.140;5.428;2022-11-04T00:49:52;100110.13;;;10.76;93.92
72116;BME280;59991;52.140;5.428;2022-11-04T00:50:23;100110.13;;;10.76;93.83
72116;BME280;59991;52.140;5.428;2022-11-04T00:50:54;100107.81;;;10.71;94.29
72116;BME280;59991;52.140;5.428;2022-11-04T00:51:26;100101.19;;;10.76;94.31
72116;BME280;59991;52.140;5.428;2022-11-04T00:51:57;100104.31;;;10.74;94.20
72116;BME280;59991;52.140;5.428;2022-11-04T00:52:29;100105.09;;;10.71;94.22
72116;BME280;59991;52.140;5.428;2022-11-04T00:53:02;100103.91;;;10.76;94.17
72116;BME280;59991;52.140;5.428;2022-11-04T00:53:33;100105.88;;;10.71;94.60
72116;BME280;59991;52.140;5.428;2022-11-04T00:54:05;100103.53;;;10.70;94.38
72116;BME280;59991;52.140;5.428;2022-11-04T00:54:36;100108.22;;;10.69;94.46
72116;BME280;59991;52.140;5.428;2022-11-04T00:55:08;100105.88;;;10.68;94.01
72116;BME280;59991;52.140;5.428;2022-11-04T00:55:39;100111.31;;;10.68;94.59
72116;BME280;59991;52.140;5.428;2022-11-04T00:56:10;100114.06;;;10.68;93.96
72116;BME280;59991;52.140;5.428;2022-11-04T00:56:42;100112.88;;;10.69;94.24
72116;BME280;59991;52.140;5.428;2022-11-04T00:57:14;100120.66;;;10.70;94.14
72116;BME280;59991;52.140;5.428;2022-11-04T00:57:46;100114.84;;;10.68;94.21
72116;BME280;59991;52.140;5.428;2022-11-04T00:58:17;100113.66;;;10.66;93.91
72116;BME280;59991;52.140;5.428;2022-11-04T00:58:48;100119.13;;;10.66;94.02
72116;BME280;59991;52.140;5.428;2022-11-04T00:59:20;100107.44;;;10.62;94.26
72116;BME280;59991;52.140;5.428;2022-11-04T00:59:52;100111.34;;;10.64;94.02
72116;BME280;59991;52.140;5.428;2022-11-04T01:00:23;100113.28;;;10.64;94.32
72116;BME280;59991;52.140;5.428;2022-11-04T01:00:55;100116.00;;;10.67;94.30
72116;BME280;59991;52.140;5.428;2022-11-04T01:01:26;100110.56;;;10.64;94.27
72116;BME280;59991;52.140;5.428;2022-11-04T01:01:58;100119.50;;;10.68;93.92
72116;BME280;59991;52.140;5.428;2022-11-04T01:02:29;100117.94;;;10.67;94.04
72116;BME280;59991;52.140;5.428;2022-11-04T01:03:01;100123.41;;;10.67;94.01
72116;BME280;59991;52.140;5.428;2022-11-04T01:03:32;100121.84;;;10.66;93.96
72116;BME280;59991;52.140;5.428;2022-11-04T01:04:03;100121.47;;;10.64;94.13
72116;BME280;59991;52.140;5.428;2022-11-04T01:04:35;100128.47;;;10.65;94.33
72116;BME280;59991;52.140;5.428;2022-11-04T01:05:07;100124.97;;;10.64;94.23
72116;BME280;59991;52.140;5.428;2022-11-04T01:05:38;100127.31;;;10.62;94.71
72116;BME280;59991;52.140;5.428;2022-11-04T01:06:10;100124.56;;;10.62;94.44
72116;BME280;59991;52.140;5.428;2022-11-04T01:06:41;100120.69;;;10.60;94.32
72116;BME280;59991;52.140;5.428;2022-11-04T01:07:12;100118.75;;;10.60;94.33
72116;BME280;59991;52.140;5.428;2022-11-04T01:07:44;100123.03;;;10.61;94.22
72116;BME280;59991;52.140;5.428;2022-11-04T01:08:15;100130.44;;;10.61;94.50
72116;BME280;59991;52.140;5.428;2022-11-04T01:08:47;100130.44;;;10.61;94.63
72116;BME280;59991;52.140;5.428;2022-11-04T01:09:19;100133.16;;;10.61;94.56
72116;BME280;59991;52.140;5.428;2022-11-04T01:09:50;100135.09;;;10.60;94.52
72116;BME280;59991;52.140;5.428;2022-11-04T01:10:22;100120.72;;;10.56;94.85
72116;BME280;59991;52.140;5.428;2022-11-04T01:10:53;100135.09;;;10.60;94.58
72116;BME280;59991;52.140;5.428;2022-11-04T01:11:25;100135.91;;;10.57;94.41
72116;BME280;59991;52.140;5.428;2022-11-04T01:11:58;100141.72;;;10.63;94.81
72116;BME280;59991;52.140;5.428;2022-11-04T01:12:30;100141.31;;;10.61;94.53
72116;BME280;59991;52.140;5.428;2022-11-04T01:13:01;100136.66;;;10.61;94.45
72116;BME280;59991;52.140;5.428;2022-11-04T01:13:34;100144.06;;;10.61;94.60
72116;BME280;59991;52.140;5.428;2022-11-04T01:14:06;100139.38;;;10.61;94.46
72116;BME280;59991;52.140;5.428;2022-11-04T01:14:38;100146.38;;;10.62;94.33
72116;BME280;59991;52.140;5.428;2022-11-04T01:15:09;100145.63;;;10.58;94.36
72116;BME280;59991;52.140;5.428;2022-11-04T01:15:41;100151.44;;;10.64;94.39
72116;BME280;59991;52.140;5.428;2022-11-04T01:16:12;100147.94;;;10.60;94.54
72116;BME280;59991;52.140;5.428;2022-11-04T01:16:44;100151.06;;;10.62;94.19
72116;BME280;59991;52.140;5.428;2022-11-04T01:17:15;100144.84;;;10.61;94.24
72116;BME280;59991;52.140;5.428;2022-11-04T01:17:47;100153.41;;;10.60;94.35
72116;BME280;59991;52.140;5.428;2022-11-04T01:18:18;100153.78;;;10.62;94.61
72116;BME280;59991;52.140;5.428;2022-11-04T01:18:50;100159.63;;;10.60;94.57
72116;BME280;59991;52.140;5.428;2022-11-04T01:19:21;100154.97;;;10.61;94.27
72116;BME280;59991;52.140;5.428;2022-11-04T01:19:53;100153.41;;;10.63;94.32
72116;BME280;59991;52.140;5.428;2022-11-04T01:20:24;100160.03;;;10.62;94.46
72116;BME280;59991;52.140;5.428;2022-11-04T01:21:03;100153.78;;;10.62;94.45
72116;BME280;59991;52.140;5.428;2022-11-04T01:21:35;100167.81;;;10.64;94.71
72116;BME280;59991;52.140;5.428;2022-11-04T01:22:07;100153.00;;;10.61;94.73
72116;BME280;59991;52.140;5.428;2022-11-04T01:22:38;100165.09;;;10.64;94.70
72116;BME280;59991;52.140;5.428;2022-11-04T01:23:09;100164.31;;;10.63;94.80
72116;BME280;59991;52.140;5.428;2022-11-04T01:23:42;100163.91;;;10.65;94.56
72116;BME280;59991;52.140;5.428;2022-11-04T01:24:14;100159.25;;;10.62;94.40
72116;BME280;59991;52.140;5.428;2022-11-04T01:24:45;100162.75;;;10.62;94.51
72116;BME280;59991;52.140;5.428;2022-11-04T01:25:17;100160.41;;;10.64;94.86
72116;BME280;59991;52.140;5.428;2022-11-04T01:25:48;100158.84;;;10.63;94.39
72116;BME280;59991;52.140;5.428;2022-11-04T01:26:22;100168.59;;;10.64;94.58
72116;BME280;59991;52.140;5.428;2022-11-04T01:26:53;100163.91;;;10.65;94.78
72116;BME280;59991;52.140;5.428;2022-11-04T01:27:25;100165.88;;;10.64;94.87
72116;BME280;59991;52.140;5.428;2022-11-04T01:27:56;100167.41;;;10.65;94.75
72116;BME280;59991;52.140;5.428;2022-11-04T01:28:28;100169.75;;;10.63;94.54
72116;BME280;59991;52.140;5.428;2022-11-04T01:28:59;100169.38;;;10.65;94.79
72116;BME280;59991;52.140;5.428;2022-11-04T01:29:30;100172.88;;;10.62;94.55
72116;BME280;59991;52.140;5.428;2022-11-04T01:30:03;100165.47;;;10.62;94.67
72116;BME280;59991;52.140;5.428;2022-11-04T01:30:37;100171.31;;;10.64;94.66
72116;BME280;59991;52.140;5.428;2022-11-04T01:31:11;100169.38;;;10.65;94.91
72116;BME280;59991;52.140;5.428;2022-11-04T01:31:42;100170.16;;;10.65;94.79
72116;BME280;59991;52.140;5.428;2022-11-04T01:32:14;100172.88;;;10.65;94.55
72116;BME280;59991;52.140;5.428;2022-11-04T01:32:45;100171.72;;;10.63;94.57
72116;BME280;59991;52.140;5.428;2022-11-04T01:33:16;100174.81;;;10.65;94.58
72116;BME280;59991;52.140;5.428;2022-11-04T01:33:52;100176.38;;;10.66;94.41
72116;BME280;59991;52.140;5.428;2022-11-04T01:34:23;100176.00;;;10.64;94.70
72116;BME280;59991;52.140;5.428;2022-11-04T01:34:55;100177.94;;;10.63;94.81
72116;BME280;59991;52.140;5.428;2022-11-04T01:35:26;100184.16;;;10.64;94.89
72116;BME280;59991;52.140;5.428;2022-11-04T01:35:59;100182.22;;;10.61;94.70
72116;BME280;59991;52.140;5.428;2022-11-04T01:36:30;100182.63;;;10.59;94.66
72116;BME280;59991;52.140;5.428;2022-11-04T01:37:01;100177.19;;;10.56;94.73
72116;BME280;59991;52.140;5.428;2022-11-04T01:37:33;100187.28;;;10.59;94.61
72116;BME280;59991;52.140;5.428;2022-11-04T01:38:05;100184.97;;;10.57;94.38
72116;BME280;59991;52.140;5.428;2022-11-04T01:38:37;100187.28;;;10.59;94.87
72116;BME280;59991;52.140;5.428;2022-11-04T01:39:08;100181.84;;;10.59;94.81
72116;BME280;59991;52.140;5.428;2022-11-04T01:39:39;100188.06;;;10.59;94.90
72116;BME280;59991;52.140;5.428;2022-11-04T01:40:11;100190.03;;;10.55;94.90
72116;BME280;59991;52.140;5.428;2022-11-04T01:40:42;100193.94;;;10.58;94.88
72116;BME280;59991;52.140;5.428;2022-11-04T01:41:19;100187.28;;;10.59;95.00
72116;BME280;59991;52.140;5.428;2022-11-04T01:41:51;100191.22;;;10.58;94.77
72116;BME280;59991;52.140;5.428;2022-11-04T01:42:23;100180.69;;;10.53;94.71
72116;BME280;59991;52.140;5.428;2022-11-04T01:42:54;100191.59;;;10.56;94.69
72116;BME280;59991;52.140;5.428;2022-11-04T01:44:46;100195.88;;;10.54;94.76
72116;BME280;59991;52.140;5.428;2022-11-04T01:45:20;100197.44;;;10.51;94.44
72116;BME280;59991;52.140;5.428;2022-11-04T01:45:58;100191.22;;;10.51;94.88
72116;BME280;59991;52.140;5.428;2022-11-04T01:46:38;100204.47;;;10.49;94.44
72116;BME280;59991;52.140;5.428;2022-11-04T01:47:23;100197.44;;;10.48;94.38
72116;BME280;59991;52.140;5.428;2022-11-04T01:48:00;100196.28;;;10.45;94.36
72116;BME280;59991;52.140;5.428;2022-11-04T01:48:34;100202.91;;;10.44;94.14
72116;BME280;59991;52.140;5.428;2022-11-04T01:49:32;100199.78;;;10.42;94.08
72116;BME280;59991;52.140;5.428;2022-11-04T01:50:16;100196.66;;;10.40;93.96
72116;BME280;59991;52.140;5.428;2022-11-04T01:50:52;100200.59;;;10.39;93.88
72116;BME280;59991;52.140;5.428;2022-11-04T01:51:24;100198.59;;;10.39;93.97
72116;BME280;59991;52.140;5.428;2022-11-04T01:52:01;100199.41;;;10.36;93.74
72116;BME280;59991;52.140;5.428;2022-11-04T01:52:41;100199.03;;;10.34;93.92
72116;BME280;59991;52.140;5.428;2022-11-04T01:53:20;100198.63;;;10.32;93.76
72116;BME280;59991;52.140;5.428;2022-11-04T01:53:54;100196.69;;;10.29;93.65
72116;BME280;59991;52.140;5.428;2022-11-04T01:54:27;100202.91;;;10.30;93.65
72116;BME280;59991;52.140;5.428;2022-11-04T01:55:03;100200.56;;;10.28;93.69
72116;BME280;59991;52.140;5.428;2022-11-04T01:55:40;100204.09;;;10.29;93.74
72116;BME280;59991;52.140;5.428;2022-11-04T01:56:14;100198.25;;;10.23;93.48
72116;BME280;59991;52.140;5.428;2022-11-04T01:56:47;100202.13;;;10.22;93.57
72116;BME280;59991;52.140;5.428;2022-11-04T01:57:24;100204.47;;;10.24;93.38
72116;BME280;59991;52.140;5.428;2022-11-04T01:58:10;100203.69;;;10.23;93.12
72116;BME280;59991;52.140;5.428;2022-11-04T01:58:48;100211.47;;;10.25;93.39
72116;BME280;59991;52.140;5.428;2022-11-04T01:59:24;100193.56;;;10.24;93.36
72116;BME280;59991;52.140;5.428;2022-11-04T02:00:00;100202.91;;;10.23;93.29
72116;BME280;59991;52.140;5.428;2022-11-04T02:00:32;100206.44;;;10.20;93.10
72116;BME280;59991;52.140;5.428;2022-11-04T02:01:04;100203.69;;;10.16;93.04
72116;BME280;59991;52.140;5.428;2022-11-04T02:01:36;100200.19;;;10.16;93.06
72116;BME280;59991;52.140;5.428;2022-11-04T02:02:07;100204.06;;;10.18;93.14
72116;BME280;59991;52.140;5.428;2022-11-04T02:02:48;100202.50;;;10.17;93.27
72116;BME280;59991;52.140;5.428;2022-11-04T02:03:33;100195.50;;;10.16;93.24
72116;BME280;59991;52.140;5.428;2022-11-04T02:04:07;100204.44;;;10.13;93.35
72116;BME280;59991;52.140;5.428;2022-11-04T02:04:57;100203.28;;;10.14;93.34
72116;BME280;59991;52.140;5.428;2022-11-04T02:05:29;100206.00;;;10.14;93.20
72116;BME280;59991;52.140;5.428;2022-11-04T02:06:01;100194.34;;;10.14;93.25
72116;BME280;59991;52.140;5.428;2022-11-04T02:06:33;100203.66;;;10.13;93.58
72116;BME280;59991;52.140;5.428;2022-11-04T02:07:07;100202.88;;;10.12;93.28
72116;BME280;59991;52.140;5.428;2022-11-04T02:07:39;100200.56;;;10.11;93.30
72116;BME280;59991;52.140;5.428;2022-11-04T02:08:12;100199.78;;;10.10;93.67
72116;BME280;59991;52.140;5.428;2022-11-04T02:08:45;100195.88;;;10.11;93.38
72116;BME280;59991;52.140;5.428;2022-11-04T02:09:18;100199.00;;;10.10;93.23
72116;BME280;59991;52.140;5.428;2022-11-04T02:09:50;100206.78;;;10.11;93.33
72116;BME280;59991;52.140;5.428;2022-11-04T02:10:24;100206.38;;;10.09;93.50
72116;BME280;59991;52.140;5.428;2022-11-04T02:11:01;100210.28;;;10.08;93.41
72116;BME280;59991;52.140;5.428;2022-11-04T02:11:33;100214.56;;;10.09;93.56
72116;BME280;59991;52.140;5.428;2022-11-04T02:12:23;100213.41;;;10.10;93.54
72116;BME280;59991;52.140;5.428;2022-11-04T02:13:13;100209.91;;;10.10;93.54
72116;BME280;59991;52.140;5.428;2022-11-04T02:13:45;100211.06;;;10.09;93.17
72116;BME280;59991;52.140;5.428;2022-11-04T02:14:16;100214.94;;;10.08;93.48
72116;BME280;59991;52.140;5.428;2022-11-04T02:14:48;100214.16;;;10.07;93.59
72116;BME280;59991;52.140;5.428;2022-11-04T02:16:32;100223.88;;;10.04;93.74
72116;BME280;59991;52.140;5.428;2022-11-04T02:18:02;100225.06;;;10.03;93.53
72116;BME280;59991;52.140;5.428;2022-11-04T02:20:47;100228.94;;;10.02;94.05
72116;BME280;59991;52.140;5.428;2022-11-04T02:21:40;100226.59;;;10.01;93.65
72116;BME280;59991;52.140;5.428;2022-11-04T02:22:42;100228.59;;;10.00;93.99
72116;BME280;59991;52.140;5.428;2022-11-04T02:23:55;100232.06;;;10.01;93.72
72116;BME280;59991;52.140;5.428;2022-11-04T02:27:24;100235.97;;;10.00;93.82
72116;BME280;59991;52.140;5.428;2022-11-04T02:30:28;100252.69;;;9.95;93.70
72116;BME280;59991;52.140;5.428;2022-11-04T02:31:30;100253.47;;;9.95;94.05
72116;BME280;59991;52.140;5.428;2022-11-04T02:32:14;100264.75;;;9.94;93.65
72116;BME280;59991;52.140;5.428;2022-11-04T02:32:53;100259.31;;;9.94;93.81
72116;BME280;59991;52.140;5.428;2022-11-04T02:34:00;100255.00;;;9.93;93.65
72116;BME280;59991;52.140;5.428;2022-11-04T02:35:40;100261.25;;;9.93;93.47
72116;BME280;59991;52.140;5.428;2022-11-04T02:37:39;100259.28;;;9.90;93.79
72116;BME280;59991;52.140;5.428;2022-11-04T02:38:36;100268.25;;;9.91;93.70
72116;BME280;59991;52.140;5.428;2022-11-04T02:39:24;100274.84;;;9.90;93.91
72116;BME280;59991;52.140;5.428;2022-11-04T02:40:21;100267.06;;;9.88;93.89
72116;BME280;59991;52.140;5.428;2022-11-04T02:41:01;100264.34;;;9.88;94.07
72116;BME280;59991;52.140;5.428;2022-11-04T02:41:56;100270.16;;;9.87;93.64
72116;BME280;59991;52.140;5.428;2022-11-04T02:42:42;100274.44;;;9.88;93.61
72116;BME280;59991;52.140;5.428;2022-11-04T02:43:51;100281.06;;;9.87;93.57
72116;BME280;59991;52.140;5.428;2022-11-04T02:44:32;100276.00;;;9.85;93.48
72116;BME280;59991;52.140;5.428;2022-11-04T02:45:16;100269.00;;;9.88;93.68
72116;BME280;59991;52.140;5.428;2022-11-04T02:46:02;100275.22;;;9.88;93.62
72116;BME280;59991;52.140;5.428;2022-11-04T02:47:14;100279.91;;;9.88;93.63
72116;BME280;59991;52.140;5.428;2022-11-04T02:47:59;100281.47;;;9.89;93.69
72116;BME280;59991;52.140;5.428;2022-11-04T02:48:41;100281.47;;;9.89;93.82
72116;BME280;59991;52.140;5.428;2022-11-04T02:49:21;100285.75;;;9.90;93.42
72116;BME280;59991;52.140;5.428;2022-11-04T02:49:57;100284.19;;;9.89;93.62
72116;BME280;59991;52.140;5.428;2022-11-04T02:50:38;100285.34;;;9.88;93.49
72116;BME280;59991;52.140;5.428;2022-11-04T02:51:27;100286.50;;;9.87;93.61
72116;BME280;59991;52.140;5.428;2022-11-04T02:52:04;100280.28;;;9.90;93.69
72116;BME280;59991;52.140;5.428;2022-11-04T02:52:50;100280.69;;;9.88;93.56
72116;BME280;59991;52.140;5.428;2022-11-04T02:53:30;100286.91;;;9.92;93.33
72116;BME280;59991;52.140;5.428;2022-11-04T02:54:13;100288.84;;;9.92;93.87
72116;BME280;59991;52.140;5.428;2022-11-04T02:54:49;100286.13;;;9.92;93.71
72116;BME280;59991;52.140;5.428;2022-11-04T02:55:29;100295.47;;;9.94;93.63
72116;BME280;59991;52.140;5.428;2022-11-04T02:56:04;100296.25;;;9.91;93.30
72116;BME280;59991;52.140;5.428;2022-11-04T02:56:44;100294.72;;;9.94;93.19
72116;BME280;59991;52.140;5.428;2022-11-04T02:57:21;100288.47;;;9.90;93.60
72116;BME280;59991;52.140;5.428;2022-11-04T02:57:57;100286.53;;;9.90;93.30
72116;BME280;59991;52.140;5.428;2022-11-04T02:58:33;100293.91;;;9.90;93.46
72116;BME280;59991;52.140;5.428;2022-11-04T02:59:10;100293.16;;;9.93;92.94
72116;BME280;59991;52.140;5.428;2022-11-04T02:59:47;100289.63;;;9.89;93.49
72116;BME280;59991;52.140;5.428;2022-11-04T03:00:19;100291.56;;;9.88;93.44
72116;BME280;59991;52.140;5.428;2022-11-04T03:00:53;100289.25;;;9.90;93.71
72116;BME280;59991;52.140;5.428;2022-11-04T03:01:33;100293.16;;;9.93;93.42
72116;BME280;59991;52.140;5.428;2022-11-04T03:02:09;100288.47;;;9.90;93.40
72116;BME280;59991;52.140;5.428;2022-11-04T03:02:43;100295.88;;;9.93;93.52
72116;BME280;59991;52.140;5.428;2022-11-04T03:03:23;100289.63;;;9.89;93.62
72116;BME280;59991;52.140;5.428;2022-11-04T03:04:00;100288.09;;;9.91;93.32
72116;BME280;59991;52.140;5.428;2022-11-04T03:04:37;100297.03;;;9.92;93.43
72116;BME280;59991;52.140;5.428;2022-11-04T03:05:13;100289.22;;;9.87;93.41
72116;BME280;59991;52.140;5.428;2022-11-04T03:05:48;100294.69;;;9.90;93.34
72116;BME280;59991;52.140;5.428;2022-11-04T03:06:22;100293.13;;;9.89;93.10
72116;BME280;59991;52.140;5.428;2022-11-04T03:06:56;100294.69;;;9.90;92.98
72116;BME280;59991;52.140;5.428;2022-11-04T03:07:34;100296.25;;;9.88;93.27
72116;BME280;59991;52.140;5.428;2022-11-04T03:08:14;100290.78;;;9.88;93.02
72116;BME280;59991;52.140;5.428;2022-11-04T03:08:49;100297.78;;;9.89;93.43
72116;BME280;59991;52.140;5.428;2022-11-04T03:09:21;100297.78;;;9.89;93.36
72116;BME280;59991;52.140;5.428;2022-11-04T03:09:59;100305.19;;;9.88;93.04
72116;BME280;59991;52.140;5.428;2022-11-04T03:10:35;100311.03;;;9.90;93.42
72116;BME280;59991;52.140;5.428;2022-11-04T03:11:13;100301.69;;;9.88;93.79
72116;BME280;59991;52.140;5.428;2022-11-04T03:11:49;100300.91;;;9.87;93.22
72116;BME280;59991;52.140;5.428;2022-11-04T03:12:26;100306.75;;;9.89;93.16
72116;BME280;59991;52.140;5.428;2022-11-04T03:13:51;100303.25;;;9.92;93.24
72116;BME280;59991;52.140;5.428;2022-11-04T03:14:36;100311.81;;;9.91;93.45
72116;BME280;59991;52.140;5.428;2022-11-04T03:15:16;100304.03;;;9.89;93.14
72116;BME280;59991;52.140;5.428;2022-11-04T03:15:56;100305.19;;;9.92;93.00
72116;BME280;59991;52.140;5.428;2022-11-04T03:16:48;100304.41;;;9.91;93.04
72116;BME280;59991;52.140;5.428;2022-11-04T03:17:26;100301.69;;;9.91;93.03
72116;BME280;59991;52.140;5.428;2022-11-04T03:18:37;100305.97;;;9.92;92.98
72116;BME280;59991;52.140;5.428;2022-11-04T03:19:22;100312.59;;;9.91;93.20
72116;BME280;59991;52.140;5.428;2022-11-04T03:19:58;100310.25;;;9.90;93.13
72116;BME280;59991;52.140;5.428;2022-11-04T03:20:30;100310.63;;;9.88;93.02
72116;BME280;59991;52.140;5.428;2022-11-04T03:21:04;100318.03;;;9.88;92.80
72116;BME280;59991;52.140;5.428;2022-11-04T03:21:41;100309.47;;;9.86;92.88
72116;BME280;59991;52.140;5.428;2022-11-04T03:22:21;100311.41;;;9.85;92.68
72116;BME280;59991;52.140;5.428;2022-11-04T03:22:54;100307.13;;;9.84;92.70
72116;BME280;59991;52.140;5.428;2022-11-04T03:23:30;100314.50;;;9.84;92.83
72116;BME280;59991;52.140;5.428;2022-11-04T03:24:02;100313.34;;;9.85;92.54
72116;BME280;59991;52.140;5.428;2022-11-04T03:24:34;100318.38;;;9.83;92.61
72116;BME280;59991;52.140;5.428;2022-11-04T03:25:07;100317.22;;;9.84;92.17
72116;BME280;59991;52.140;5.428;2022-11-04T03:25:46;100319.19;;;9.80;92.52